NCAR-RAP Real-Time Weather Data

Output produced by METARs form (23 July 2018  17:08 UTC)
found at http://weather.rap.ucar.edu/surface/
 
KMOT 231654Z 29018G32KT 10SM CLR 24/08 A3016 RMK AO2 PK WND 29034/1625 SLP209 T02390083
KMOT 231554Z 28015G22KT 10SM CLR 22/09 A3017 RMK AO2 SLP212 T02220094
 
KMIB 231656Z AUTO 31021G29KT 10SM CLR 22/09 A3014 RMK AO2 PK WND 32033/04 SLP211 T02210089
KMIB 231556Z AUTO 31018KT 10SM CLR 22/09 A3015 RMK AO2 PK WND 31028/10 SLP214 T02160091
 
KDVL 231656Z AUTO 28019KT 10SM CLR 21/12 A3013 RMK AO2 SLP212 T02110117
KDVL 231556Z AUTO 29016G20KT 10SM CLR 19/12 A3013 RMK AO2 SLP214 T01940122
 
KGFK 231653Z 28011G17KT 10SM SCT038 24/17 A3006 RMK AO2 SLP177 T02440167
KGFK 231553Z 31010KT 10SM FEW030 23/16 A3007 RMK AO2 SLP180 T02280156
 
KRDR 231656Z AUTO 31013KT 10SM FEW038 23/15 A3008 RMK AO2 SLP188 T02330146 $
KRDR 231556Z AUTO 32008KT 10SM CLR 23/16 A3008 RMK AO2 SLP189 T02250156 $
 
KCKN 231655Z AUTO 30012G18KT 10SM SCT033 23/15 A3008 RMK AO2
KCKN 231635Z AUTO 31011KT 10SM CLR 23/16 A3008 RMK AO2
KCKN 231615Z AUTO 29010KT 10SM CLR 23/16 A3008 RMK AO2
KCKN 231555Z AUTO 31011KT 10SM CLR 22/16 A3008 RMK AO2
KCKN 231535Z AUTO 31008KT 10SM CLR 22/16 A3008 RMK AO2
KCKN 231515Z AUTO 30009KT 10SM CLR 21/16 A3008 RMK AO2
 
KHCO 231655Z AUTO 28014KT 10SM SCT040 24/13 A3004 RMK AO2
KHCO 231635Z AUTO 28012G16KT 10SM SCT036 23/14 A3004 RMK AO2
KHCO 231615Z AUTO 27012G15KT 10SM SCT034 23/15 A3004 RMK AO2
KHCO 231555Z AUTO 28012KT 10SM CLR 22/16 A3004 RMK AO2
KHCO 231535Z AUTO 28010KT 10SM CLR 22/16 A3004 RMK AO2
KHCO 231515Z AUTO 29009KT 10SM CLR 22/16 A3005 RMK AO2